Terminal Aerodrome Forecast
Issued by NWS Boise, ID

Current Version | Previous Version | Text Only | Print | Product List | Glossary On
Versions: 1 2 3 4 5 6 7 8 9 10 11 12 13
000
FTUS45 KBOI 172331
TAFBNO
TAF
KBNO 172331Z 1800/1824 28014G24KT P6SM -SHRA OVC050
     FM180700 27010KT P6SM FEW025 BKN050
     FM181000 25006KT P6SM SCT150=

USA.gov is the U.S. government's official web portal to all federal, state and local government web resources and services.